Time;durP1;ratioP1;P1;durP2;ratioP2;P2;SDS_P1;SDS_P2;PMS_P1;PMS_P2;Temp;Humidity;BMP_temperature;BMP_pressure;BME280_temperature;BME280_humidity;BME280_pressure;Samples;Min_cycle;Max_cycle;Signal;HPM_P1;HPM_P2
2023/08/04 00:01:45;;;;;;;1.80;1.30;;;;;;;;;;5021771;28;20496;-59
2023/08/04 00:04:12;;;;;;;1.60;1.43;;;17.50;99.90;;;;;;5021226;28;20481;-61
2023/08/04 00:06:41;;;;;;;1.43;1.30;;;17.10;99.90;;;;;;5010867;28;20500;-61
2023/08/04 00:09:08;;;;;;;2.00;1.33;;;;;;;;;;5001487;28;20473;-60
2023/08/04 00:11:35;;;;;;;2.57;1.73;;;17.10;99.90;;;;;;5001438;28;20441;-61
2023/08/04 00:14:02;;;;;;;1.97;1.80;;;17.70;99.90;;;;;;5001157;28;20903;-61
2023/08/04 00:16:29;;;;;;;2.67;2.20;;;;;;;;;;5005117;28;20990;-61
2023/08/04 00:18:56;;;;;;;2.23;1.50;;;17.50;99.90;;;;;;5006331;28;21020;-61
2023/08/04 00:21:23;;;;;;;1.43;1.30;;;17.40;99.90;;;;;;5009213;28;20520;-63
2023/08/04 00:23:58;;;;;;;1.93;1.73;;;17.40;99.90;;;;;;5013683;28;20990;-62
2023/08/04 00:26:25;;;;;;;1.67;1.57;;;17.10;99.90;;;;;;5013993;28;20429;-59
2023/08/04 00:28:52;;;;;;;2.50;1.67;;;;;;;;;;5014172;28;20465;-58
2023/08/04 00:31:19;;;;;;;1.63;1.50;;;17.40;99.90;;;;;;5015718;28;20433;-58
2023/08/04 00:33:46;;;;;;;2.30;1.60;;;;;;;;;;5018022;28;20445;-58
2023/08/04 00:36:13;;;;;;;3.20;1.70;;;;;;;;;;5018131;28;20521;-61
2023/08/04 00:38:40;;;;;;;2.07;1.87;;;17.40;99.90;;;;;;5018203;28;20478;-57
2023/08/04 00:41:10;;;;;;;1.80;1.67;;;17.60;99.90;;;;;;5017702;28;20842;-61
2023/08/04 00:43:37;;;;;;;4.63;1.80;;;17.50;99.90;;;;;;5018215;28;20442;-61
2023/08/04 00:46:04;;;;;;;4.27;2.00;;;17.60;99.90;;;;;;5018138;28;20481;-61
2023/08/04 00:48:31;;;;;;;2.00;1.83;;;17.30;99.90;;;;;;5017644;28;20449;-59
2023/08/04 00:50:58;;;;;;;1.80;1.70;;;17.80;99.90;;;;;;5001992;28;20458;-62
2023/08/04 00:53:25;;;;;;;2.13;1.93;;;;;;;;;;4997942;28;20426;-59
2023/08/04 00:55:52;;;;;;;4.47;2.03;;;;;;;;;;4997747;28;20863;-61
2023/08/04 00:58:20;;;;;;;3.50;1.67;;;17.60;99.90;;;;;;4997522;28;20525;-62
2023/08/04 01:00:47;;;;;;;3.20;1.60;;;17.80;99.90;;;;;;4998943;28;20485;-62
2023/08/04 01:03:14;;;;;;;2.03;1.83;;;17.70;99.90;;;;;;5000519;28;20548;-59
2023/08/04 01:05:50;;;;;;;2.50;2.30;;;17.70;99.90;;;;;;4999644;28;20906;-62
2023/08/04 01:08:22;;;;;;;1.90;1.80;;;17.80;99.90;;;;;;4998356;28;20525;-61
2023/08/04 01:10:56;;;;;;;1.90;1.70;;;17.60;99.90;;;;;;5000053;28;20525;-59
2023/08/04 01:13:25;;;;;;;4.70;2.13;;;18.20;99.90;;;;;;4997068;28;20427;-60
2023/08/04 01:15:53;;;;;;;2.30;1.77;;;;;;;;;;4997349;28;20509;-61
2023/08/04 01:18:21;;;;;;;2.43;2.00;;;17.90;99.90;;;;;;4996944;28;20522;-61
2023/08/04 01:20:48;;;;;;;2.30;2.10;;;18.10;99.90;;;;;;4997028;28;20442;-61
2023/08/04 01:23:16;;;;;;;3.00;2.10;;;18.20;99.90;;;;;;4997624;28;20438;-59
2023/08/04 01:25:44;;;;;;;4.30;2.40;;;18.00;99.90;;;;;;4997468;28;20859;-60
2023/08/04 01:28:14;;;;;;;3.50;2.53;;;18.30;99.90;;;;;;4998682;28;20470;-61
2023/08/04 01:30:44;;;;;;;3.10;2.53;;;18.10;99.90;;;;;;5004481;28;20584;-60
2023/08/04 01:33:11;;;;;;;4.03;2.10;;;18.10;99.90;;;;;;4996866;28;20426;-60
2023/08/04 01:35:38;;;;;;;4.23;2.50;;;18.00;99.90;;;;;;4998318;28;20841;-61
2023/08/04 01:38:07;;;;;;;2.20;2.00;;;;;;;;;;5010361;28;20954;-58
2023/08/04 01:40:35;;;;;;;2.80;2.30;;;18.10;99.90;;;;;;5011392;28;20541;-60
2023/08/04 01:43:04;;;;;;;2.43;2.23;;;18.20;99.90;;;;;;5009790;28;20446;-59
2023/08/04 01:45:31;;;;;;;2.27;2.07;;;18.20;99.90;;;;;;5000113;28;20474;-61
2023/08/04 01:47:58;;;;;;;3.07;2.80;;;18.10;99.90;;;;;;5006559;28;20484;-60
2023/08/04 01:50:25;;;;;;;5.20;2.40;;;18.30;99.90;;;;;;5010920;28;20460;-56
2023/08/04 01:52:53;;;;;;;3.60;2.80;;;;;;;;;;5010834;28;20470;-58
2023/08/04 01:55:19;;;;;;;3.27;2.93;;;18.10;99.90;;;;;;5009513;28;20460;-62
2023/08/04 01:57:48;;;;;;;2.77;2.30;;;18.20;99.90;;;;;;5009486;28;20473;-62
2023/08/04 02:00:15;;;;;;;3.30;2.37;;;18.20;99.90;;;;;;5011859;28;20435;-61
2023/08/04 02:02:41;;;;;;;3.70;3.30;;;18.10;99.90;;;;;;5016710;28;20436;-61
2023/08/04 02:05:10;;;;;;;2.77;2.37;;;17.80;99.90;;;;;;5016708;28;20526;-58
2023/08/04 02:07:37;;;;;;;7.40;2.80;;;18.10;99.90;;;;;;5016668;28;20457;-58
2023/08/04 02:10:04;;;;;;;3.10;2.60;;;17.80;99.90;;;;;;5016800;28;20513;-59
2023/08/04 02:12:31;;;;;;;2.60;1.97;;;17.80;99.90;;;;;;5016952;28;20449;-59
2023/08/04 02:15:00;;;;;;;3.37;3.00;;;18.00;99.90;;;;;;4996986;28;20464;-61
2023/08/04 02:17:27;;;;;;;2.87;2.57;;;18.10;99.90;;;;;;4996726;28;20430;-61
2023/08/04 02:19:56;;;;;;;4.30;2.70;;;18.30;99.90;;;;;;5001332;28;20505;-59
2023/08/04 02:22:23;;;;;;;3.40;2.30;;;18.10;99.90;;;;;;4996034;28;20474;-62
2023/08/04 02:24:50;;;;;;;4.23;3.43;;;;;;;;;;4995928;28;20477;-61
2023/08/04 02:27:17;;;;;;;4.50;3.10;;;18.10;99.90;;;;;;4996120;28;20525;-59
2023/08/04 02:29:44;;;;;;;3.37;3.00;;;18.20;99.90;;;;;;4996992;28;20546;-60
2023/08/04 02:32:12;;;;;;;5.03;2.87;;;18.30;99.90;;;;;;5000655;28;20493;-60
2023/08/04 02:34:39;;;;;;;2.80;2.60;;;18.30;99.90;;;;;;5005136;28;20460;-59
2023/08/04 02:37:06;;;;;;;9.00;3.00;;;18.40;99.90;;;;;;4997928;28;20481;-62
2023/08/04 02:39:34;;;;;;;4.77;2.53;;;18.00;99.90;;;;;;5004469;28;20472;-57
2023/08/04 02:42:04;;;;;;;2.83;2.60;;;17.90;99.90;;;;;;5016859;28;20510;-61
2023/08/04 02:44:31;;;;;;;4.70;2.90;;;17.90;99.90;;;;;;5011810;28;20466;-61
2023/08/04 02:46:58;;;;;;;6.10;2.50;;;17.90;99.90;;;;;;4995912;28;20517;-61
2023/08/04 02:49:26;;;;;;;3.57;3.27;;;18.00;99.90;;;;;;4995724;28;20572;-60
2023/08/04 02:51:53;;;;;;;4.00;3.60;;;;;;;;;;4996545;28;20533;-63
2023/08/04 02:54:20;;;;;;;3.03;2.60;;;17.90;99.90;;;;;;4995225;28;20509;-61
2023/08/04 02:56:47;;;;;;;4.73;3.43;;;18.30;99.90;;;;;;4995400;28;20466;-61
2023/08/04 02:59:14;;;;;;;2.80;2.60;;;;;;;;;;4995189;28;20565;-63
2023/08/04 03:01:41;;;;;;;5.80;3.53;;;;;;;;;;4995306;28;20481;-61
2023/08/04 03:04:08;;;;;;;3.57;3.13;;;18.20;99.90;;;;;;4995267;28;20485;-60
2023/08/04 03:06:36;;;;;;;3.53;2.77;;;18.80;99.90;;;;;;5017223;28;20446;-48
2023/08/04 03:09:06;;;;;;;7.83;3.13;;;18.20;99.90;;;;;;5019333;28;20418;-51
2023/08/04 03:11:33;;;;;;;10.17;3.50;;;18.70;99.90;;;;;;5018095;28;20446;-57
2023/08/04 03:14:00;;;;;;;10.33;2.70;;;18.00;99.90;;;;;;5018013;28;20442;-52
2023/08/04 03:16:27;;;;;;;4.60;3.07;;;17.80;99.90;;;;;;5016649;28;20449;-58
2023/08/04 03:18:53;;;;;;;5.80;3.23;;;18.10;99.90;;;;;;5017370;28;20466;-55
2023/08/04 03:21:22;;;;;;;3.37;3.00;;;18.10;99.90;;;;;;5017256;28;20456;-53
2023/08/04 03:23:50;;;;;;;6.80;3.07;;;17.90;99.90;;;;;;5016784;28;20530;-56
2023/08/04 03:26:17;;;;;;;2.97;2.67;;;17.80;99.90;;;;;;5005958;28;20534;-62
2023/08/04 03:28:44;;;;;;;3.37;3.07;;;;;;;;;;4994973;28;20557;-63
2023/08/04 03:31:12;;;;;;;4.07;2.57;;;;;;;;;;4996338;28;20442;-62
2023/08/04 03:33:38;;;;;;;3.67;3.03;;;17.70;99.90;;;;;;5001399;28;20549;-62
2023/08/04 03:36:06;;;;;;;5.90;3.90;;;18.20;99.90;;;;;;5001908;28;20518;-61
2023/08/04 03:38:33;;;;;;;4.40;2.97;;;;;;;;;;5009671;28;20488;-61
2023/08/04 03:41:01;;;;;;;5.10;3.17;;;17.90;99.90;;;;;;5010052;28;20581;-62
2023/08/04 03:43:28;;;;;;;7.90;3.17;;;17.80;99.90;;;;;;5008990;28;20803;-62
2023/08/04 03:45:55;;;;;;;4.60;3.60;;;17.80;99.90;;;;;;5009638;28;20851;-61
2023/08/04 03:48:22;;;;;;;3.43;3.13;;;17.60;99.90;;;;;;5009774;28;20505;-62
2023/08/04 03:50:49;;;;;;;7.23;3.13;;;17.80;99.90;;;;;;5010130;28;20484;-59
2023/08/04 03:53:16;;;;;;;5.20;3.40;;;17.80;99.90;;;;;;5011257;28;20445;-61
2023/08/04 03:55:44;;;;;;;8.00;3.70;;;17.80;99.90;;;;;;5010249;28;20477;-63
2023/08/04 03:58:12;;;;;;;11.43;3.57;;;17.60;99.90;;;;;;5006017;28;20485;-63
2023/08/04 04:00:39;;;;;;;3.13;2.90;;;17.80;99.90;;;;;;4995148;28;20422;-60
2023/08/04 04:03:06;;;;;;;4.47;3.20;;;17.50;99.90;;;;;;4995363;28;20532;-63
2023/08/04 04:05:32;;;;;;;5.53;3.67;;;17.30;99.90;;;;;;4997554;28;20449;-62
2023/08/04 04:08:00;;;;;;;4.00;3.60;;;;;;;;;;4999609;28;20493;-59
2023/08/04 04:10:26;;;;;;;7.10;3.93;;;17.40;99.90;;;;;;4999235;28;20497;-62
2023/08/04 04:12:53;;;;;;;4.97;4.43;;;17.20;99.90;;;;;;4998279;28;20512;-61
2023/08/04 04:15:22;;;;;;;6.07;2.70;;;17.30;99.90;;;;;;4998573;28;20938;-62
2023/08/04 04:17:48;;;;;;;3.80;3.40;;;17.30;99.90;;;;;;4998547;28;20546;-62
2023/08/04 04:20:16;;;;;;;4.20;3.60;;;17.50;99.90;;;;;;4998227;28;21049;-61
2023/08/04 04:22:42;;;;;;;8.40;3.20;;;17.60;99.90;;;;;;5018556;28;20434;-58
2023/08/04 04:25:09;;;;;;;8.20;3.90;;;17.30;99.90;;;;;;5019303;28;20461;-59
2023/08/04 04:27:36;;;;;;;6.57;3.87;;;17.60;99.90;;;;;;5019336;28;20446;-58
2023/08/04 04:30:03;;;;;;;7.77;3.70;;;17.10;99.90;;;;;;5008771;28;20473;-63
2023/08/04 04:32:32;;;;;;;6.23;3.70;;;17.50;99.90;;;;;;4997992;28;20541;-63
2023/08/04 04:34:58;;;;;;;6.53;3.67;;;17.30;99.90;;;;;;4997917;28;20474;-61
2023/08/04 04:37:26;;;;;;;7.70;4.10;;;;;;;;;;5002755;28;20462;-61
2023/08/04 04:39:52;;;;;;;5.77;4.17;;;17.40;99.90;;;;;;5000129;28;20521;-63
2023/08/04 04:42:22;;;;;;;3.43;2.97;;;17.40;99.90;;;;;;5005301;28;20446;-52
2023/08/04 04:44:49;;;;;;;5.60;4.10;;;17.40;99.90;;;;;;5021867;28;20406;-49
2023/08/04 04:47:16;;;;;;;7.73;4.10;;;;;;;;;;5020996;28;20461;-55
2023/08/04 04:49:44;;;;;;;4.40;3.40;;;17.50;99.90;;;;;;5020350;28;20441;-59
2023/08/04 04:52:30;;;;;;;11.23;4.30;;;17.40;99.90;;;;;;5020202;28;20470;-60
2023/08/04 04:55:00;;;;;;;9.00;3.50;;;17.40;99.90;;;;;;5019181;28;20427;-52
2023/08/04 04:57:27;;;;;;;6.50;4.00;;;;;;;;;;5005748;28;20477;-63
2023/08/04 04:59:54;;;;;;;7.30;4.80;;;;;;;;;;4997384;28;20880;-63
2023/08/04 05:02:21;;;;;;;7.70;3.77;;;17.20;99.90;;;;;;5001749;28;20528;-56
2023/08/04 05:04:50;;;;;;;6.60;3.80;;;17.30;99.90;;;;;;5013368;28;20482;-57
2023/08/04 05:07:17;;;;;;;5.03;3.50;;;;;;;;;;5012983;28;20461;-61
2023/08/04 05:09:44;;;;;;;7.37;4.13;;;17.60;99.90;;;;;;5013714;28;20466;-59
2023/08/04 05:12:10;;;;;;;5.30;4.20;;;17.50;99.90;;;;;;5013686;28;20478;-57
2023/08/04 05:14:40;;;;;;;4.60;3.80;;;17.50;99.90;;;;;;5012895;28;20470;-61
2023/08/04 05:17:07;;;;;;;5.40;3.63;;;17.60;99.90;;;;;;5013560;28;20450;-60
2023/08/04 05:19:34;;;;;;;5.47;3.30;;;17.50;99.90;;;;;;5014234;28;20525;-61
2023/08/04 05:22:02;;;;;;;6.30;3.00;;;17.90;99.90;;;;;;4997441;28;20533;-60
2023/08/04 05:24:29;;;;;;;4.33;3.77;;;17.70;99.90;;;;;;5014356;28;20449;-60
2023/08/04 05:26:57;;;;;;;6.33;3.53;;;17.70;99.90;;;;;;5012377;28;20501;-51
2023/08/04 05:29:24;;;;;;;9.63;3.60;;;;;;;;;;5008731;28;20525;-50
2023/08/04 05:31:51;;;;;;;4.23;3.07;;;;;;;;;;5020634;28;20442;-59
2023/08/04 05:34:18;;;;;;;5.50;3.37;;;17.80;99.90;;;;;;5001686;28;20532;-61
2023/08/04 05:36:45;;;;;;;5.43;3.20;;;17.90;99.90;;;;;;5013283;28;20462;-62
2023/08/04 05:39:13;;;;;;;8.60;3.23;;;17.80;99.90;;;;;;5015611;28;20466;-45
2023/08/04 05:41:41;;;;;;;6.40;3.37;;;18.10;99.90;;;;;;5011351;28;20430;-59
2023/08/04 05:44:08;;;;;;;9.47;4.13;;;;;;;;;;4996719;28;20863;-62
2023/08/04 05:46:35;;;;;;;4.10;2.90;;;18.10;99.90;;;;;;5000084;28;20509;-62
2023/08/04 05:49:02;;;;;;;8.93;3.80;;;18.10;99.90;;;;;;4996874;28;20438;-61
2023/08/04 05:51:29;;;;;;;13.20;3.90;;;18.00;99.90;;;;;;4996919;28;20533;-63
2023/08/04 05:53:56;;;;;;;5.47;3.10;;;;;;;;;;5000942;28;20512;-61
2023/08/04 05:56:24;;;;;;;4.53;3.83;;;18.30;99.90;;;;;;5009246;28;20422;-53
2023/08/04 05:58:51;;;;;;;9.30;2.97;;;18.10;99.90;;;;;;5020221;28;21033;-53
2023/08/04 06:01:18;;;;;;;4.53;3.30;;;18.40;99.90;;;;;;5019888;28;20465;-61
2023/08/04 06:03:45;;;;;;;4.50;2.80;;;18.40;99.90;;;;;;5017404;28;20481;-60
2023/08/04 06:06:14;;;;;;;5.47;3.33;;;18.20;99.90;;;;;;5015837;28;20453;-57
2023/08/04 06:08:41;;;;;;;8.27;3.20;;;18.20;99.90;;;;;;5003133;28;20442;-61
2023/08/04 06:11:09;;;;;;;4.00;2.90;;;18.00;99.90;;;;;;5000836;28;20466;-60
2023/08/04 06:13:38;;;;;;;7.50;3.33;;;18.10;99.90;;;;;;5011103;28;20450;-62
2023/08/04 06:16:05;;;;;;;5.00;2.70;;;18.20;99.90;;;;;;5011394;28;20481;-62
2023/08/04 06:18:32;;;;;;;5.87;3.20;;;18.60;99.90;;;;;;5011197;28;20427;-62
2023/08/04 06:20:59;;;;;;;6.40;2.77;;;18.20;99.90;;;;;;4998631;28;20573;-62
2023/08/04 06:23:26;;;;;;;5.03;3.33;;;;;;;;;;4996410;28;20427;-61
2023/08/04 06:25:53;;;;;;;4.17;3.13;;;18.20;99.90;;;;;;4999353;28;20480;-63
2023/08/04 06:28:21;;;;;;;3.30;2.60;;;18.50;99.90;;;;;;5007496;28;20453;-62
2023/08/04 06:30:50;;;;;;;4.80;2.70;;;;;;;;;;5005418;28;20902;-61
2023/08/04 06:33:17;;;;;;;10.97;3.37;;;19.00;99.90;;;;;;4996233;28;20505;-60
2023/08/04 06:35:45;;;;;;;11.27;3.07;;;;;;;;;;5009545;28;20457;-62
2023/08/04 06:38:12;;;;;;;6.77;3.27;;;;;;;;;;4995924;28;20536;-62
2023/08/04 06:40:43;;;;;;;3.70;2.53;;;18.80;99.90;;;;;;5001135;28;20490;-61
2023/08/04 06:43:10;;;;;;;6.90;2.53;;;18.80;99.90;;;;;;5009392;28;20532;-62
2023/08/04 06:45:41;;;;;;;3.50;3.00;;;19.10;99.90;;;;;;5005565;28;20437;-55
2023/08/04 06:48:09;;;;;;;5.53;2.77;;;;;;;;;;5017871;28;20472;-62
2023/08/04 06:50:36;;;;;;;4.90;2.67;;;19.10;99.90;;;;;;5001219;28;20501;-61
2023/08/04 06:53:07;;;;;;;4.93;3.67;;;19.30;99.90;;;;;;5007055;28;20526;-49
2023/08/04 06:55:34;;;;;;;5.80;2.87;;;19.40;99.90;;;;;;5019324;28;20505;-50
2023/08/04 06:58:06;;;;;;;7.63;2.90;;;19.20;99.90;;;;;;5017516;28;20436;-61
2023/08/04 07:00:33;;;;;;;5.07;2.63;;;19.10;99.90;;;;;;5015254;28;20470;-61
2023/08/04 07:02:59;;;;;;;2.93;2.37;;;18.90;99.90;;;;;;5004982;28;20453;-50
2023/08/04 07:05:28;;;;;;;5.43;3.07;;;19.90;99.90;;;;;;5013045;28;20423;-61
2023/08/04 07:07:55;;;;;;;3.77;2.80;;;19.50;99.90;;;;;;5002510;28;20445;-61
2023/08/04 07:10:21;;;;;;;6.20;2.73;;;19.50;99.90;;;;;;5013753;28;20441;-49
2023/08/04 07:12:54;;;;;;;3.30;2.90;;;19.40;99.90;;;;;;5018027;28;20490;-59
2023/08/04 07:15:23;;;;;;;5.70;3.13;;;19.50;99.90;;;;;;5002716;28;20462;-59
2023/08/04 07:17:50;;;;;;;4.20;2.93;;;;;;;;;;5016975;28;20465;-62
2023/08/04 07:20:17;;;;;;;6.53;3.03;;;19.70;99.90;;;;;;4995441;28;20859;-63
2023/08/04 07:22:45;;;;;;;7.90;2.57;;;19.40;99.90;;;;;;4999953;28;20508;-62
2023/08/04 07:25:12;;;;;;;7.03;3.03;;;19.30;99.90;;;;;;4996334;28;20488;-63
2023/08/04 07:27:39;;;;;;;12.70;2.70;;;19.70;99.90;;;;;;5016032;28;20453;-52
2023/08/04 07:30:07;;;;;;;3.50;2.50;;;19.30;99.90;;;;;;5018854;28;20454;-62
2023/08/04 07:32:34;;;;;;;3.23;2.73;;;19.20;99.90;;;;;;4998878;28;20442;-58
2023/08/04 07:35:01;;;;;;;6.07;2.53;;;19.50;99.90;;;;;;4995361;28;20476;-59
2023/08/04 07:37:29;;;;;;;2.60;1.93;;;19.80;99.90;;;;;;4995367;28;20548;-63
2023/08/04 07:39:57;;;;;;;5.83;2.30;;;19.80;99.90;;;;;;4997623;28;20580;-61
2023/08/04 07:42:25;;;;;;;4.50;2.40;;;20.10;99.90;;;;;;4999297;28;20950;-63
2023/08/04 07:44:52;;;;;;;2.47;2.27;;;20.00;99.90;;;;;;4998864;28;20476;-62
2023/08/04 07:47:19;;;;;;;9.60;2.43;;;;;;;;;;4998922;28;20445;-62
2023/08/04 07:49:46;;;;;;;9.07;2.13;;;21.20;99.90;;;;;;5002942;28;20509;-63
2023/08/04 07:52:12;;;;;;;2.87;2.60;;;21.70;99.90;;;;;;5003092;28;20514;-63
2023/08/04 07:54:39;;;;;;;2.87;2.23;;;23.30;99.90;;;;;;4999770;28;20548;-61
2023/08/04 07:57:09;;;;;;;2.87;1.70;;;23.90;99.90;;;;;;4998971;28;20450;-61
2023/08/04 07:59:36;;;;;;;4.50;3.40;;;24.70;99.90;;;;;;4998499;28;20528;-61
2023/08/04 08:02:03;;;;;;;3.77;2.40;;;24.90;99.90;;;;;;4998946;28;20788;-62
2023/08/04 08:04:29;;;;;;;3.07;2.80;;;25.10;99.90;;;;;;4998437;28;20572;-61
2023/08/04 08:06:56;;;;;;;7.20;1.90;;;24.10;99.90;;;;;;4998886;28;20442;-62
2023/08/04 08:09:23;;;;;;;4.43;2.20;;;24.10;99.90;;;;;;4998658;28;20462;-61
2023/08/04 08:11:53;;;;;;;2.37;1.70;;;23.70;99.90;;;;;;5019005;28;20410;-55
2023/08/04 08:14:21;;;;;;;3.73;2.23;;;23.60;99.90;;;;;;5014794;28;20434;-60
2023/08/04 08:16:48;;;;;;;6.43;2.50;;;;;;;;;;4998684;28;20446;-61
2023/08/04 08:19:15;;;;;;;3.50;2.20;;;22.70;99.90;;;;;;5020006;28;20453;-45
2023/08/04 08:21:42;;;;;;;3.50;2.40;;;22.70;99.90;;;;;;5022391;28;20414;-49
2023/08/04 08:24:09;;;;;;;3.63;3.10;;;22.60;99.90;;;;;;5022413;28;20416;-52
2023/08/04 08:26:37;;;;;;;7.70;2.30;;;;;;;;;;5021431;28;20438;-58
2023/08/04 08:29:04;;;;;;;7.00;3.00;;;22.10;99.90;;;;;;5019358;28;20446;-60
2023/08/04 08:31:33;;;;;;;4.13;2.57;;;21.80;99.90;;;;;;5004075;28;20481;-59
2023/08/04 08:34:02;;;;;;;5.13;2.60;;;21.80;99.90;;;;;;5004263;28;20454;-49
2023/08/04 08:36:29;;;;;;;6.37;4.60;;;22.10;99.90;;;;;;5022101;28;20426;-48
2023/08/04 08:38:56;;;;;;;5.00;2.70;;;22.70;99.90;;;;;;5020238;28;20418;-59
2023/08/04 08:41:23;;;;;;;7.50;2.70;;;23.30;99.90;;;;;;5016008;28;20490;-61
2023/08/04 08:43:50;;;;;;;6.60;2.60;;;24.50;99.90;;;;;;5004280;28;20490;-61
2023/08/04 08:46:17;;;;;;;6.53;2.40;;;25.20;99.90;;;;;;5003027;28;20869;-60
2023/08/04 08:48:48;;;;;;;5.93;2.43;;;26.70;99.90;;;;;;5005153;28;20442;-57
2023/08/04 08:51:19;;;;;;;5.57;2.07;;;26.40;99.90;;;;;;5002693;28;20461;-63
2023/08/04 08:53:48;;;;;;;4.17;2.03;;;26.70;99.90;;;;;;5003429;28;20481;-64
2023/08/04 08:56:15;;;;;;;5.83;3.73;;;27.90;99.90;;;;;;5002706;28;20549;-66
2023/08/04 08:58:43;;;;;;;5.90;3.10;;;28.40;99.90;;;;;;5003761;28;20481;-61
2023/08/04 09:01:10;;;;;;;6.83;2.77;;;29.00;99.90;;;;;;5002929;28;20585;-59
2023/08/04 09:03:37;;;;;;;3.97;2.10;;;29.10;99.90;;;;;;5003274;28;20445;-62
2023/08/04 09:06:06;;;;;;;3.10;2.37;;;28.50;99.90;;;;;;5002648;28;20474;-62
2023/08/04 09:08:33;;;;;;;16.20;2.97;;;;;;;;;;5003173;28;20532;-63
2023/08/04 09:11:00;;;;;;;2.47;2.27;;;;;;;;;;5000488;28;20498;-62
2023/08/04 09:13:27;;;;;;;4.70;2.60;;;26.40;99.90;;;;;;5001375;28;20454;-63
2023/08/04 09:15:58;;;;;;;3.40;2.97;;;25.60;99.90;;;;;;5000341;28;20516;-62
2023/08/04 09:18:27;;;;;;;3.77;2.33;;;25.50;99.90;;;;;;4998705;28;20434;-64
2023/08/04 09:21:01;;;;;;;3.07;1.83;;;24.80;99.90;;;;;;4997415;28;20895;-64
2023/08/04 09:23:30;;;;;;;2.83;1.70;;;24.40;99.90;;;;;;4997457;28;20501;-62
2023/08/04 09:25:58;;;;;;;3.07;2.50;;;;;;;;;;4997343;28;20445;-61
2023/08/04 09:28:26;;;;;;;10.43;2.40;;;25.20;99.90;;;;;;4997315;28;20582;-62
2023/08/04 09:31:03;;;;;;;5.10;3.20;;;26.00;99.90;;;;;;4997262;28;20497;-62
2023/08/04 09:33:31;;;;;;;5.10;2.23;;;;;;;;;;4996881;28;20477;-61
2023/08/04 09:36:03;;;;;;;3.10;2.20;;;25.90;99.90;;;;;;4996920;28;20529;-63
2023/08/04 09:38:31;;;;;;;3.20;2.17;;;25.30;99.90;;;;;;4999011;28;20461;-67
2023/08/04 09:41:02;;;;;;;3.23;2.60;;;24.40;99.90;;;;;;5000485;28;20524;-63
2023/08/04 09:43:29;;;;;;;8.37;5.70;;;24.50;99.90;;;;;;4998614;28;20457;-61
2023/08/04 09:45:59;;;;;;;20.03;6.10;;;23.70;99.90;;;;;;5001138;28;20450;-65
2023/08/04 09:48:27;;;;;;;6.33;2.70;;;;;;;;;;5001881;28;20474;-64
2023/08/04 09:51:06;;;;;;;4.03;2.60;;;23.30;99.90;;;;;;5001256;28;20540;-61
2023/08/04 09:53:41;;;;;;;3.90;2.27;;;23.20;99.90;;;;;;5002119;28;20479;-61
2023/08/04 09:56:09;;;;;;;3.20;2.57;;;24.10;99.90;;;;;;5001858;28;20537;-64
2023/08/04 09:58:36;;;;;;;3.27;2.20;;;25.20;99.90;;;;;;5014721;28;20469;-50
2023/08/04 10:01:03;;;;;;;3.80;2.60;;;26.50;99.90;;;;;;5020372;28;20461;-51
2023/08/04 10:03:30;;;;;;;3.33;2.20;;;27.80;99.90;;;;;;5013962;28;20465;-62
2023/08/04 10:05:59;;;;;;;3.90;1.77;;;28.70;99.90;;;;;;5010684;28;20446;-70
2023/08/04 10:08:28;;;;;;;4.60;1.80;;;28.70;99.90;;;;;;5009520;28;20470;-70
2023/08/04 10:10:57;;;;;;;2.43;2.23;;;27.90;97.20;;;;;;5002498;28;20496;-65
2023/08/04 10:13:25;;;;;;;2.97;2.00;;;27.00;99.90;;;;;;5001168;28;20505;-65
2023/08/04 10:15:53;;;;;;;4.00;2.27;;;25.90;99.90;;;;;;5001257;28;20461;-63
2023/08/04 10:18:20;;;;;;;8.03;2.60;;;25.10;99.90;;;;;;5001769;28;20477;-62
2023/08/04 10:20:47;;;;;;;6.90;1.90;;;24.50;99.90;;;;;;5001298;28;20486;-62
2023/08/04 10:23:14;;;;;;;4.27;2.40;;;23.40;99.90;;;;;;5004051;28;20461;-59
2023/08/04 10:25:53;;;;;;;4.17;2.50;;;23.20;99.90;;;;;;5016980;28;20430;-56
2023/08/04 10:28:22;;;;;;;3.77;2.83;;;22.00;99.90;;;;;;5003816;28;20560;-63
2023/08/04 10:31:03;;;;;;;6.00;2.67;;;22.00;99.90;;;;;;5002909;28;20414;-63
2023/08/04 10:33:30;;;;;;;3.80;2.50;;;21.50;99.90;;;;;;5000832;28;20434;-61
2023/08/04 10:36:09;;;;;;;4.20;2.50;;;21.20;99.90;;;;;;5001133;28;20508;-63
2023/08/04 10:38:46;;;;;;;4.80;2.90;;;21.20;99.90;;;;;;5001981;28;20454;-61
2023/08/04 10:41:13;;;;;;;4.93;2.60;;;21.50;99.90;;;;;;4999341;28;20555;-61
2023/08/04 10:43:41;;;;;;;3.20;2.90;;;21.80;99.90;;;;;;5001269;28;20520;-64
2023/08/04 10:46:11;;;;;;;4.87;2.40;;;22.70;99.90;;;;;;5018600;28;20478;-52
2023/08/04 10:48:40;;;;;;;4.73;2.87;;;23.60;99.90;;;;;;5019050;28;20510;-60
2023/08/04 10:51:08;;;;;;;2.70;2.40;;;24.40;99.90;;;;;;5017055;28;20470;-56
2023/08/04 10:53:35;;;;;;;6.83;2.40;;;24.90;99.90;;;;;;5016950;28;20464;-58
2023/08/04 10:56:05;;;;;;;10.87;2.50;;;25.30;99.90;;;;;;5005538;28;20456;-64
2023/08/04 10:58:32;;;;;;;3.87;2.10;;;25.70;99.90;;;;;;5005867;28;20865;-63
2023/08/04 11:01:00;;;;;;;2.23;2.03;;;25.90;99.90;;;;;;5003670;28;20529;-62
2023/08/04 11:03:29;;;;;;;4.23;2.60;;;26.00;99.90;;;;;;5000883;28;20474;-64
2023/08/04 11:05:56;;;;;;;5.50;2.30;;;25.90;99.90;;;;;;4996322;28;20536;-62
2023/08/04 11:08:24;;;;;;;3.33;2.17;;;25.80;99.90;;;;;;5010207;28;20477;-48
2023/08/04 11:10:52;;;;;;;3.60;2.50;;;25.80;99.90;;;;;;5019292;28;20449;-50
2023/08/04 11:13:22;;;;;;;2.63;2.10;;;25.90;99.90;;;;;;5019013;28;20430;-50
2023/08/04 11:15:50;;;;;;;4.00;2.40;;;25.90;99.90;;;;;;5019269;28;20406;-47
2023/08/04 11:18:23;;;;;;;2.30;2.10;;;26.00;99.90;;;;;;5011016;28;20438;-58
2023/08/04 11:20:50;;;;;;;3.80;2.10;;;26.10;99.90;;;;;;5003535;28;20481;-61
2023/08/04 11:23:25;;;;;;;8.60;2.10;;;26.00;99.90;;;;;;5002975;28;20460;-64
2023/08/04 11:25:53;;;;;;;3.70;2.40;;;25.70;99.90;;;;;;5000610;28;20434;-64
2023/08/04 11:28:20;;;;;;;3.80;2.50;;;25.70;99.90;;;;;;5000899;28;21113;-64
2023/08/04 11:30:47;;;;;;;7.10;2.40;;;25.80;99.90;;;;;;5000647;28;20570;-62
2023/08/04 11:33:15;;;;;;;2.77;2.20;;;25.70;99.90;;;;;;5000892;28;20488;-62
2023/08/04 11:35:45;;;;;;;4.37;2.97;;;25.40;99.90;;;;;;5000915;28;20497;-62
2023/08/04 11:38:12;;;;;;;2.87;2.00;;;25.30;99.90;;;;;;5000832;28;20474;-64
2023/08/04 11:40:55;;;;;;;4.17;2.33;;;25.20;99.90;;;;;;5000648;28;20549;-61
2023/08/04 11:43:23;;;;;;;5.13;3.17;;;25.00;99.90;;;;;;5001586;28;20431;-62
2023/08/04 11:45:50;;;;;;;7.67;4.43;;;24.80;99.90;;;;;;5012264;28;20521;-48
2023/08/04 11:48:18;;;;;;;2.30;1.73;;;24.60;99.90;;;;;;5018944;28;20406;-52
2023/08/04 11:50:48;;;;;;;2.30;2.10;;;24.50;99.90;;;;;;5018867;28;20456;-53
2023/08/04 11:53:16;;;;;;;2.70;1.67;;;24.40;99.90;;;;;;5001828;28;20466;-63
2023/08/04 11:55:58;;;;;;;2.60;1.80;;;24.20;99.90;;;;;;5000605;28;20474;-62
2023/08/04 11:58:35;;;;;;;10.20;4.63;;;24.10;99.90;;;;;;4999303;28;20548;-63
2023/08/04 12:01:03;;;;;;;7.27;3.80;;;23.90;99.90;;;;;;5015195;28;20456;-51
2023/08/04 12:03:47;;;;;;;3.20;1.90;;;23.80;99.90;;;;;;5011903;28;20497;-62
2023/08/04 12:06:17;;;;;;;6.67;3.70;;;23.80;99.90;;;;;;5000409;28;20524;-63
2023/08/04 12:08:49;;;;;;;8.03;4.20;;;23.90;99.90;;;;;;5000122;28;20430;-62
2023/08/04 12:11:16;;;;;;;8.43;3.70;;;24.00;99.90;;;;;;5000993;28;20426;-62
2023/08/04 12:13:43;;;;;;;3.20;2.47;;;24.00;99.90;;;;;;5001489;28;20494;-62
2023/08/04 12:16:10;;;;;;;4.43;2.30;;;24.00;99.90;;;;;;5015170;28;20430;-50
2023/08/04 12:18:36;;;;;;;4.97;2.40;;;23.90;99.90;;;;;;5016393;28;20429;-61
2023/08/04 12:21:03;;;;;;;6.40;2.57;;;23.60;99.90;;;;;;5005532;28;20524;-62
2023/08/04 12:23:32;;;;;;;10.90;2.17;;;23.50;99.90;;;;;;4999819;28;20442;-65
2023/08/04 12:25:59;;;;;;;3.90;2.23;;;23.50;99.90;;;;;;4995708;28;20500;-67
2023/08/04 12:28:26;;;;;;;6.00;2.00;;;23.60;99.90;;;;;;4998161;28;20504;-61
2023/08/04 12:30:53;;;;;;;4.57;1.70;;;23.90;99.90;;;;;;4998306;28;20466;-63
2023/08/04 12:33:19;;;;;;;5.50;2.03;;;24.10;99.90;;;;;;4998066;28;20446;-59
2023/08/04 12:35:46;;;;;;;3.13;2.10;;;24.50;99.90;;;;;;4998163;28;20981;-65
2023/08/04 12:38:13;;;;;;;5.47;1.80;;;24.70;99.90;;;;;;4998028;28;20517;-63
2023/08/04 12:40:41;;;;;;;4.13;2.50;;;24.70;99.90;;;;;;4997840;28;20465;-63
2023/08/04 12:43:08;;;;;;;4.27;2.10;;;24.50;99.90;;;;;;4997995;28;20497;-64
2023/08/04 12:45:36;;;;;;;3.63;2.50;;;24.60;99.90;;;;;;5021634;28;20430;-53
2023/08/04 12:48:04;;;;;;;5.27;2.30;;;24.60;99.90;;;;;;5022024;28;20433;-45
2023/08/04 12:50:31;;;;;;;4.80;2.27;;;24.60;99.90;;;;;;5021939;28;20437;-46
2023/08/04 12:53:01;;;;;;;3.50;2.10;;;24.70;99.90;;;;;;5021861;28;20458;-47
2023/08/04 12:55:28;;;;;;;5.43;2.33;;;24.70;99.90;;;;;;5021835;28;20421;-45
2023/08/04 12:57:58;;;;;;;5.20;2.47;;;24.60;99.90;;;;;;5021629;28;20430;-46
2023/08/04 13:00:25;;;;;;;2.90;2.20;;;24.40;99.90;;;;;;5021359;28;20446;-61
2023/08/04 13:02:52;;;;;;;3.07;2.30;;;24.30;99.90;;;;;;5019059;28;20509;-58
2023/08/04 13:05:18;;;;;;;4.50;2.40;;;24.20;99.90;;;;;;5019178;28;20430;-61